Time;durP1;ratioP1;P1;durP2;ratioP2;P2;SDS_P1;SDS_P2;PMS_P1;PMS_P2;Temp;Humidity;BMP_temperature;BMP_pressure;BME280_temperature;BME280_humidity;BME280_pressure;Samples;Min_cycle;Max_cycle;Signal;HPM_P1;HPM_P2
2023/10/02 00:01:10;;;;;;;18.48;9.93;;;;;;;;;;5083036;28;20056;-63
2023/10/02 00:03:34;;;;;;;19.25;10.13;;;;;;;;;;5081732;28;20044;-63
2023/10/02 00:06:01;;;;;;;17.70;9.80;;;;;;;;;;5081554;28;20023;-63
2023/10/02 00:11:35;;;;;;;24.67;9.82;;;;;;;;;;5082368;28;20061;-63
2023/10/02 00:16:58;;;;;;;20.77;10.30;;;;;;;;;;5082951;28;20047;-63
2023/10/02 00:19:27;;;;;;;19.60;9.93;;;;;;;;;;5082106;28;20044;-63
2023/10/02 00:21:55;;;;;;;18.63;10.75;;;;;;;;;;5083007;28;20028;-63
2023/10/02 00:24:24;;;;;;;19.13;9.98;;;;;;;;;;5082616;28;20024;-63
2023/10/02 00:26:51;;;;;;;20.48;10.02;;;;;;;;;;5082512;28;20039;-63
2023/10/02 00:29:17;;;;;;;22.35;10.52;;;;;;;;;;5082753;28;20039;-63
2023/10/02 00:31:46;;;;;;;19.98;10.57;;;;;;;;;;5061721;28;20040;-64
2023/10/02 00:34:15;;;;;;;22.88;9.95;;;;;;;;;;5080708;28;20081;-63
2023/10/02 00:36:42;;;;;;;19.83;9.93;;;;;;;;;;5080665;28;20828;-63
2023/10/02 00:39:31;;;;;;;21.52;11.35;;;;;;;;;;5080549;28;20035;-63
2023/10/02 00:44:52;;;;;;;20.48;10.95;;;;;;;;;;5080739;28;20081;-63
2023/10/02 00:47:41;;;;;;;20.83;10.35;;;;;;;;;;5081612;28;20604;-63
2023/10/02 00:50:19;;;;;;;21.13;10.48;;;;;;;;;;5081615;28;20031;-64
2023/10/02 00:52:45;;;;;;;21.25;10.85;;;;;;;;;;5081692;28;20075;-63
2023/10/02 00:55:15;;;;;;;22.40;11.30;;;;;;;;;;5081905;28;20576;-64
2023/10/02 00:57:42;;;;;;;25.88;11.43;;;;;;;;;;5065149;28;20024;-63
2023/10/02 01:00:19;;;;;;;23.63;11.88;;;;;;;;;;5081892;28;20518;-63
2023/10/02 01:02:46;;;;;;;20.95;11.15;;;;;;;;;;5082885;28;20026;-63
2023/10/02 01:05:16;;;;;;;23.23;10.98;;;;;;;;;;5081994;28;20027;-63
2023/10/02 01:07:42;;;;;;;22.95;11.18;;;;;;;;;;5080515;28;20545;-63
2023/10/02 01:10:17;;;;;;;22.23;11.38;;;;;;;;;;5080965;28;20111;-63
2023/10/02 01:12:43;;;;;;;21.33;11.32;;;;;;;;;;5081743;28;20139;-63
2023/10/02 01:15:19;;;;;;;23.50;11.88;;;;;;;;;;5081828;28;20057;-63
2023/10/02 01:17:47;;;;;;;23.58;11.82;;;;;;;;;;5081283;28;20513;-63
2023/10/02 01:20:21;;;;;;;24.27;12.30;;;;;;;;;;5081235;28;20035;-63
2023/10/02 01:22:47;;;;;;;;;;;;;;;;;;5081585;28;20049;-63
2023/10/02 01:25:13;;;;;;;20.27;10.70;;;;;;;;;;5064309;28;20371;-63
2023/10/02 01:27:40;;;;;;;20.83;10.98;;;;;;;;;;5080686;28;20117;-63
2023/10/02 01:30:26;;;;;;;26.48;12.30;;;;;;;;;;5062401;28;20117;-63
2023/10/02 01:33:39;;;;;;;29.67;12.63;;;;;;;;;;5081410;28;20040;-63
2023/10/02 01:35:47;;;;;;;21.38;11.60;;;;;;;;;;5068123;28;20070;-63
2023/10/02 01:38:14;;;;;;;21.45;10.63;;;;;;;;;;5080513;28;20036;-63
2023/10/02 01:40:44;;;;;;;20.45;11.35;;;;;;;;;;5081009;28;20479;-63
2023/10/02 01:43:14;;;;;;;23.70;11.80;;;;;;;;;;5060801;28;20032;-63
2023/10/02 01:45:42;;;;;;;23.52;12.02;;;;;;;;;;5080153;28;20038;-63
2023/10/02 01:48:09;;;;;;;24.95;12.00;;;;;;;;;;5080626;28;20032;-63
2023/10/02 01:50:36;;;;;;;22.70;12.48;;;;;;;;;;5080904;28;20158;-63
2023/10/02 01:53:28;;;;;;;20.52;11.73;;;;;;;;;;5080533;28;20032;-63
2023/10/02 01:56:00;;;;;;;24.42;12.15;;;;;;;;;;5080273;28;20031;-63
2023/10/02 01:58:26;;;;;;;22.33;11.45;;;;;;;;;;5080977;28;20154;-63
2023/10/02 02:00:52;;;;;;;22.45;12.05;;;;;;;;;;5080458;28;20089;-63
2023/10/02 02:03:18;;;;;;;24.85;12.23;;;;;;;;;;5080693;28;20028;-63
2023/10/02 02:05:46;;;;;;;23.17;12.35;;;;;;;;;;5080854;28;20028;-63
2023/10/02 02:08:22;;;;;;;25.40;11.75;;;;;;;;;;5079728;28;20114;-63
2023/10/02 02:10:48;;;;;;;21.38;12.70;;;;;;;;;;5080491;28;20100;-63
2023/10/02 02:13:16;;;;;;;26.33;13.10;;;;;;;;;;5060807;28;20717;-63
2023/10/02 02:15:47;;;;;;;26.88;13.93;;;;;;;;;;5080845;28;20035;-63
2023/10/02 02:18:14;;;;;;;22.98;13.30;;;;;;;;;;5080529;28;21008;-63
2023/10/02 02:20:58;;;;;;;24.42;13.27;;;;;;;;;;5080642;28;20058;-63
2023/10/02 02:23:31;;;;;;;23.05;12.88;;;;;;;;;;5079591;28;20059;-63
2023/10/02 02:25:57;;;;;;;22.50;12.45;;;;;;;;;;5080008;28;20036;-63
2023/10/02 02:28:23;;;;;;;22.92;12.15;;;;;;;;;;5079892;28;20069;-63
2023/10/02 02:30:49;;;;;;;23.52;13.48;;;;;;;;;;5079677;28;20036;-63
2023/10/02 02:33:16;;;;;;;21.88;12.48;;;;;;;;;;5080059;28;20036;-63
2023/10/02 02:35:44;;;;;;;24.42;12.77;;;;;;;;;;5080331;28;20068;-63
2023/10/02 02:38:16;;;;;;;24.33;14.20;;;;;;;;;;5080081;28;20028;-63
2023/10/02 02:40:42;;;;;;;24.27;13.13;;;;;;;;;;5079717;28;20035;-63
2023/10/02 02:43:19;;;;;;;24.10;13.57;;;;;;;;;;5079426;28;20264;-63
2023/10/02 02:45:45;;;;;;;29.33;13.95;;;;;;;;;;5080069;28;20497;-63
2023/10/02 02:48:12;;;;;;;31.30;14.73;;;;;;;;;;5080096;28;20139;-63
2023/10/02 02:50:42;;;;;;;24.52;13.98;;;;;;;;;;5078148;28;20133;-63
2023/10/02 02:53:23;;;;;;;26.17;15.35;;;;;;;;;;5079686;28;20024;-63
2023/10/02 02:56:14;;;;;;;29.73;15.25;;;;;;;;;;5080781;28;20038;-63
2023/10/02 02:58:41;;;;;;;26.83;14.07;;;;;;;;;;5079373;28;20038;-63
2023/10/02 03:01:13;;;;;;;27.10;14.13;;;;;;;;;;5079425;28;21237;-63
2023/10/02 03:03:42;;;;;;;25.27;14.90;;;;;;;;;;5083338;28;20032;-63
2023/10/02 03:06:22;;;;;;;27.27;15.05;;;;;;;;;;5083414;28;20031;-63
2023/10/02 03:08:48;;;;;;;29.00;14.48;;;;;;;;;;5084655;28;20047;-63
2023/10/02 03:11:19;;;;;;;32.63;15.57;;;;;;;;;;5083888;28;20032;-63
2023/10/02 03:13:46;;;;;;;28.05;14.30;;;;;;;;;;5084525;28;20998;-63
2023/10/02 03:16:13;;;;;;;25.08;14.52;;;;;;;;;;5083821;28;20035;-63
2023/10/02 03:18:43;;;;;;;27.77;15.75;;;;;;;;;;5083626;28;20127;-63
2023/10/02 03:21:14;;;;;;;28.70;15.07;;;;;;;;;;5084003;28;20039;-63
2023/10/02 03:23:44;;;;;;;27.80;15.05;;;;;;;;;;5083930;28;20107;-63
2023/10/02 03:26:27;;;;;;;29.10;14.95;;;;;;;;;;5083603;28;20028;-63
2023/10/02 03:29:03;;;;;;;26.17;15.10;;;;;;;;;;5084203;28;20716;-63
2023/10/02 03:32:01;;;;;;;30.20;15.60;;;;;;;;;;5083470;28;20105;-63
2023/10/02 03:34:28;;;;;;;24.95;14.10;;;;;;;;;;5082416;28;20049;-63
2023/10/02 03:37:12;;;;;;;31.30;15.68;;;;;;;;;;5082931;28;20035;-63
2023/10/02 03:39:52;;;;;;;27.38;15.25;;;;;;;;;;5083524;28;20048;-63
2023/10/02 03:42:22;;;;;;;28.33;14.90;;;;;;;;;;5082967;28;20032;-63
2023/10/02 03:44:49;;;;;;;24.65;14.27;;;;;;;;;;5083498;28;21304;-63
2023/10/02 03:47:15;;;;;;;24.95;14.27;;;;;;;;;;5083205;28;20028;-63
2023/10/02 03:49:45;;;;;;;26.02;14.30;;;;;;;;;;5083548;28;21004;-63
2023/10/02 03:52:14;;;;;;;25.08;14.40;;;;;;;;;;5082305;28;20030;-63
2023/10/02 03:54:43;;;;;;;25.80;13.10;;;;;;;;;;5083638;28;20032;-63
2023/10/02 03:57:11;;;;;;;26.35;13.35;;;;;;;;;;5083294;28;20794;-63
2023/10/02 03:59:52;;;;;;;22.73;13.13;;;;;;;;;;5083181;28;20051;-63
2023/10/02 04:02:30;;;;;;;25.55;13.98;;;;;;;;;;5081892;28;20043;-63
2023/10/02 04:04:56;;;;;;;30.52;14.13;;;;;;;;;;5083332;28;20042;-63
2023/10/02 04:07:25;;;;;;;27.42;14.98;;;;;;;;;;5081705;28;20036;-63
2023/10/02 04:09:53;;;;;;;28.42;14.85;;;;;;;;;;5081905;28;20097;-63
2023/10/02 04:12:19;;;;;;;25.55;14.10;;;;;;;;;;5082048;28;20761;-63
2023/10/02 04:14:46;;;;;;;25.80;14.45;;;;;;;;;;5081984;28;20060;-63
2023/10/02 04:17:14;;;;;;;24.70;13.43;;;;;;;;;;5082394;28;20162;-63
2023/10/02 04:19:48;;;;;;;27.10;13.45;;;;;;;;;;5081902;28;20059;-63
2023/10/02 04:22:22;;;;;;;26.05;13.48;;;;;;;;;;5083021;28;20023;-63
2023/10/02 04:24:53;;;;;;;24.05;13.50;;;;;;;;;;5082082;28;20082;-63
2023/10/02 04:32:42;;;;;;;24.33;13.32;;;;;;;;;;5082281;28;20420;-63
2023/10/02 04:35:44;;;;;;;23.15;14.25;;;;;;;;;;5082180;28;20130;-63
2023/10/02 04:37:59;;;;;;;26.55;14.38;;;;;;;;;;5081772;28;20121;-63
2023/10/02 04:40:37;;;;;;;27.50;14.85;;;;;;;;;;5082177;28;20034;-63
2023/10/02 04:43:22;;;;;;;26.92;13.50;;;;;;;;;;5082752;28;20028;-63
2023/10/02 04:45:48;;;;;;;24.48;13.93;;;;;;;;;;5082442;28;20039;-63
2023/10/02 04:48:16;;;;;;;27.92;14.48;;;;;;;;;;5081751;28;20756;-63
2023/10/02 04:50:45;;;;;;;25.63;13.50;;;;;;;;;;5081815;28;20128;-63
2023/10/02 04:55:44;;;;;;;26.80;14.00;;;;;;;;;;5081855;28;20036;-63
2023/10/02 04:58:14;;;;;;;25.80;13.85;;;;;;;;;;5082190;28;20040;-63
2023/10/02 05:03:32;;;;;;;27.83;14.43;;;;;;;;;;5081518;28;21068;-63
2023/10/02 05:05:59;;;;;;;23.13;13.65;;;;;;;;;;5081548;28;20507;-63
2023/10/02 05:08:41;;;;;;;27.65;14.88;;;;;;;;;;5081206;28;20036;-63
2023/10/02 05:11:23;;;;;;;27.05;14.43;;;;;;;;;;5069823;28;20063;-63
2023/10/02 05:16:33;;;;;;;24.67;13.93;;;;;;;;;;5080445;28;20088;-63
2023/10/02 05:19:01;;;;;;;24.50;14.30;;;;;;;;;;5081444;28;20043;-63
2023/10/02 05:21:36;;;;;;;27.65;15.60;;;;;;;;;;5079183;28;20032;-63
2023/10/02 05:24:11;;;;;;;24.08;13.93;;;;;;;;;;5081762;28;20024;-63
2023/10/02 05:26:39;;;;;;;29.95;14.80;;;;;;;;;;5079858;28;20052;-63
2023/10/02 05:29:09;;;;;;;28.10;15.23;;;;;;;;;;5080816;28;20055;-63
2023/10/02 05:31:43;;;;;;;28.48;15.32;;;;;;;;;;5079933;28;20556;-63
2023/10/02 05:34:22;;;;;;;23.33;13.88;;;;;;;;;;5080203;28;20324;-63
2023/10/02 05:39:31;;;;;;;28.70;15.05;;;;;;;;;;5081912;28;20112;-64
2023/10/02 05:42:05;;;;;;;33.80;14.65;;;;;;;;;;5079647;28;20122;-63
2023/10/02 05:44:34;;;;;;;24.92;14.05;;;;;;;;;;5081001;28;20113;-63
2023/10/02 05:47:07;;;;;;;26.45;14.80;;;;;;;;;;5079650;28;20058;-63
2023/10/02 05:49:36;;;;;;;28.52;15.13;;;;;;;;;;5080722;28;20032;-63
2023/10/02 05:52:03;;;;;;;27.42;15.05;;;;;;;;;;5080428;28;20043;-63
2023/10/02 05:54:29;;;;;;;25.38;14.77;;;;;;;;;;5080541;28;20076;-63
2023/10/02 05:57:14;;;;;;;23.33;14.02;;;;;;;;;;5079811;28;20453;-63
2023/10/02 05:59:48;;;;;;;26.17;14.82;;;;;;;;;;5079681;28;20051;-63
2023/10/02 06:02:15;;;;;;;27.02;13.95;;;;;;;;;;5075993;28;20024;-63
2023/10/02 06:04:48;;;;;;;25.80;13.73;;;;;;;;;;5073499;28;20031;-63
2023/10/02 06:07:19;;;;;;;28.42;15.82;;;;;;;;;;5073987;28;20016;-64
2023/10/02 06:09:46;;;;;;;28.17;15.98;;;;;;;;;;5073739;28;20040;-63
2023/10/02 06:12:12;;;;;;;26.10;14.52;;;;;;;;;;5073351;28;20059;-63
2023/10/02 06:14:43;;;;;;;27.83;14.50;;;;;;;;;;5073876;28;20032;-64
2023/10/02 06:17:12;;;;;;;27.40;16.20;;;;;;;;;;5073867;28;20049;-64
2023/10/02 06:19:42;;;;;;;26.92;15.25;;;;;;;;;;5055287;28;20127;-63
2023/10/02 06:22:13;;;;;;;28.70;15.68;;;;;;;;;;5073999;28;20036;-63
2023/10/02 06:24:39;;;;;;;26.77;15.20;;;;;;;;;;5073215;28;20020;-63
2023/10/02 06:27:07;;;;;;;28.33;15.50;;;;;;;;;;5073885;28;20105;-64
2023/10/02 06:29:37;;;;;;;29.67;15.52;;;;;;;;;;5072579;28;20503;-63
2023/10/02 06:32:05;;;;;;;23.98;14.68;;;;;;;;;;5072148;28;20027;-63
2023/10/02 06:34:38;;;;;;;27.33;16.08;;;;;;;;;;5073759;28;20059;-63
2023/10/02 06:37:07;;;;;;;;;;;;;;;;;;5074576;28;20071;-63
2023/10/02 06:39:35;;;;;;;25.60;14.63;;;;;;;;;;5078249;28;20405;-63
2023/10/02 06:42:04;;;;;;;26.40;15.07;;;;;;;;;;5076695;28;20032;-63
2023/10/02 06:44:52;;;;;;;27.77;15.93;;;;;;;;;;5077713;28;20032;-64
2023/10/02 06:47:21;;;;;;;25.35;15.13;;;;;;;;;;5076100;28;20063;-64
2023/10/02 06:49:47;;;;;;;28.33;15.15;;;;;;;;;;5077186;28;21722;-63
2023/10/02 06:52:15;;;;;;;29.45;16.55;;;;;;;;;;5057530;28;20028;-64
2023/10/02 06:54:45;;;;;;;30.52;16.75;;;;;;;;;;5077498;28;20039;-63
2023/10/02 06:57:13;;;;;;;27.88;15.45;;;;;;;;;;5076763;28;20093;-63
2023/10/02 06:59:39;;;;;;;29.52;16.77;;;;;;;;;;5077729;28;20035;-63
2023/10/02 07:02:06;;;;;;;28.35;16.27;;;;;;;;;;5075519;28;20722;-64
2023/10/02 07:04:35;;;;;;;30.33;16.63;;;;;;;;;;5068304;28;20046;-64
2023/10/02 07:07:07;;;;;;;28.27;16.50;;;;;;;;;;5075871;28;20024;-63
2023/10/02 07:09:34;;;;;;;31.17;16.98;;;;;;;;;;5076492;28;20040;-64
2023/10/02 07:12:08;;;;;;;26.35;15.30;;;;;;;;;;5077023;28;20058;-63
2023/10/02 07:14:38;;;;;;;26.02;15.35;;;;;;;;;;5076688;28;20041;-64
2023/10/02 07:17:17;;;;;;;28.42;17.38;;;;;;;;;;5076950;28;20028;-63
2023/10/02 07:19:48;;;;;;;29.92;16.88;;;;;;;;;;5076133;28;20024;-63
2023/10/02 07:22:23;;;;;;;26.90;15.88;;;;;;;;;;5076412;28;20027;-63
2023/10/02 07:24:52;;;;;;;29.75;17.50;;;;;;;;;;5076008;28;20073;-64
2023/10/02 07:27:24;;;;;;;26.05;15.80;;;;;;;;;;5076689;28;20036;-63
2023/10/02 07:29:51;;;;;;;29.58;16.20;;;;;;;;;;5075078;28;21839;-63
2023/10/02 07:32:22;;;;;;;26.73;16.95;;;;;;;;;;5073719;28;20036;-64
2023/10/02 07:34:50;;;;;;;29.88;16.40;;;;;;;;;;5075105;28;20032;-64
2023/10/02 07:37:21;;;;;;;31.13;16.92;;;;;;;;;;5073869;28;20027;-64
2023/10/02 07:39:48;;;;;;;32.88;18.40;;;;;;;;;;5074802;28;20032;-63
2023/10/02 07:42:16;;;;;;;31.23;17.88;;;;;;;;;;5075574;28;20085;-64
2023/10/02 07:44:42;;;;;;;28.67;17.25;;;;;;;;;;5070931;27;20062;-64
2023/10/02 07:47:16;;;;;;;29.88;16.98;;;;;;;;;;5068850;28;20040;-63
2023/10/02 07:49:47;;;;;;;30.08;17.20;;;;;;;;;;5066150;28;20028;-64
2023/10/02 07:52:26;;;;;;;31.65;17.67;;;;;;;;;;5068092;28;21000;-64
2023/10/02 07:54:58;;;;;;;30.98;17.60;;;;;;;;;;5068650;27;20039;-64
2023/10/02 07:57:30;;;;;;;29.85;17.85;;;;;;;;;;5070320;28;20508;-63
2023/10/02 07:59:57;;;;;;;32.13;17.42;;;;;;;;;;5069573;28;20092;-64
2023/10/02 08:02:23;;;;;;;35.20;18.10;;;;;;;;;;5068757;27;20123;-63
2023/10/02 08:04:52;;;;;;;29.77;17.80;;;;;;;;;;5068271;28;20024;-64
2023/10/02 08:07:19;;;;;;;30.83;17.45;;;;;;;;;;5068467;28;20028;-63
2023/10/02 08:09:52;;;;;;;31.20;18.17;;;;;;;;;;5048098;28;20162;-64
2023/10/02 08:12:30;;;;;;;31.85;17.15;;;;;;;;;;5069184;27;20441;-64
2023/10/02 08:15:03;;;;;;;31.35;17.75;;;;;;;;;;5069157;28;21535;-64
2023/10/02 08:20:16;;;;;;;31.08;17.50;;;;;;;;;;5069365;28;20411;-64
2023/10/02 08:22:47;;;;;;;26.30;17.10;;;;;;;;;;5069391;28;20047;-63
2023/10/02 08:25:14;;;;;;;33.58;18.20;;;;;;;;;;5068885;28;20981;-63
2023/10/02 08:27:43;;;;;;;33.10;18.27;;;;;;;;;;5067843;28;20536;-64
2023/10/02 08:30:26;;;;;;;34.83;19.00;;;;;;;;;;5069884;28;20028;-63
2023/10/02 08:32:53;;;;;;;36.90;18.92;;;;;;;;;;5074964;28;20024;-63
2023/10/02 08:35:19;;;;;;;33.63;19.13;;;;;;;;;;5075511;28;20105;-63
2023/10/02 08:37:46;;;;;;;34.53;19.23;;;;;;;;;;5075029;28;20078;-64
2023/10/02 08:40:15;;;;;;;32.90;19.40;;;;;;;;;;5075366;28;20556;-63
2023/10/02 08:42:46;;;;;;;36.17;19.70;;;;;;;;;;5064018;28;20727;-64
2023/10/02 08:45:20;;;;;;;33.80;19.13;;;;;;;;;;5075204;28;20071;-64
2023/10/02 08:47:47;;;;;;;34.28;19.33;;;;;;;;;;5056178;28;20039;-63
2023/10/02 08:50:14;;;;;;;35.55;20.27;;;;;;;;;;5074320;28;20126;-63
2023/10/02 08:52:50;;;;;;;36.33;20.63;;;;;;;;;;5075760;28;20031;-64
2023/10/02 08:55:36;;;;;;;34.72;19.85;;;;;;;;;;5074656;28;20045;-63
2023/10/02 08:58:18;;;;;;;37.70;19.80;;;;;;;;;;5074694;28;20114;-63
2023/10/02 09:03:43;;;;;;;36.92;20.88;;;;;;;;;;5074716;28;20036;-63
2023/10/02 09:11:41;;;;;;;40.47;21.00;;;;;;;;;;5075086;28;20043;-64
2023/10/02 09:17:07;;;;;;;34.53;19.90;;;;;;;;;;5074919;28;20039;-64
2023/10/02 09:19:34;;;;;;;33.22;19.02;;;;;;;;;;5074369;28;20692;-64
2023/10/02 09:22:06;;;;;;;32.30;18.70;;;;;;;;;;5074744;28;20073;-64
2023/10/02 09:24:36;;;;;;;34.10;19.50;;;;;;;;;;5073980;28;20031;-64
2023/10/02 09:27:25;;;;;;;37.50;19.73;;;;;;;;;;5074639;28;20081;-64
2023/10/02 09:32:50;;;;;;;35.40;19.55;;;;;;;;;;5075112;28;20440;-64
2023/10/02 09:35:29;;;;;;;32.38;19.10;;;;;;;;;;5074217;28;20048;-64
2023/10/02 09:38:06;;;;;;;39.55;19.25;;;;;;;;;;5074448;28;21148;-64
2023/10/02 09:40:56;;;;;;;35.13;18.67;;;;;;;;;;5074087;28;20020;-64
2023/10/02 09:43:23;;;;;;;35.25;19.13;;;;;;;;;;5074517;28;20029;-64
2023/10/02 09:45:52;;;;;;;31.48;18.58;;;;;;;;;;5074638;28;20194;-64
2023/10/02 09:51:25;;;;;;;37.22;20.30;;;;;;;;;;5073637;28;20053;-65
2023/10/02 09:54:08;;;;;;;35.13;18.70;;;;;;;;;;5071909;28;20085;-64
2023/10/02 09:56:51;;;;;;;33.65;18.55;;;;;;;;;;5073880;28;20062;-64
2023/10/02 09:59:19;;;;;;;35.67;19.55;;;;;;;;;;5071494;28;20046;-64
2023/10/02 10:02:47;;;;;;;30.15;18.40;;;;;;;;;;5072732;28;20487;-64
2023/10/02 10:07:46;;;;;;;33.28;18.40;;;;;;;;;;5073384;28;20203;-64
2023/10/02 10:10:49;;;;;;;35.40;18.23;;;;;;;;;;5074296;28;20797;-65
2023/10/02 10:13:25;;;;;;;32.13;18.90;;;;;;;;;;5073858;28;20024;-64
2023/10/02 10:15:51;;;;;;;39.28;19.65;;;;;;;;;;5072798;28;20020;-64
2023/10/02 10:18:18;;;;;;;35.10;18.40;;;;;;;;;;5074542;28;20028;-64
2023/10/02 10:20:44;;;;;;;30.25;16.77;;;;;;;;;;5073538;28;20028;-64
2023/10/02 10:23:31;;;;;;;32.50;18.48;;;;;;;;;;5073722;28;20024;-64
2023/10/02 10:26:07;;;;;;;35.47;18.58;;;;;;;;;;5074339;28;20035;-64
2023/10/02 10:28:50;;;;;;;33.00;17.42;;;;;;;;;;5074003;28;20093;-64
2023/10/02 10:31:26;;;;;;;32.67;17.10;;;;;;;;;;5073986;28;20112;-65
2023/10/02 10:33:52;;;;;;;31.10;16.85;;;;;;;;;;5073995;28;20064;-64
2023/10/02 10:36:35;;;;;;;31.98;18.33;;;;;;;;;;5074866;28;21749;-64
2023/10/02 10:39:30;;;;;;;34.00;17.58;;;;;;;;;;5074076;28;20097;-64
2023/10/02 10:41:57;;;;;;;31.80;18.00;;;;;;;;;;5074131;28;20090;-65
2023/10/02 10:44:26;;;;;;;29.73;17.92;;;;;;;;;;5074118;28;20038;-64
2023/10/02 10:46:52;;;;;;;32.80;17.67;;;;;;;;;;5073821;28;20066;-64
2023/10/02 10:49:24;;;;;;;27.40;15.73;;;;;;;;;;5074409;28;20031;-65
2023/10/02 10:51:55;;;;;;;27.17;15.32;;;;;;;;;;5073257;28;20024;-64
2023/10/02 10:54:30;;;;;;;26.67;16.10;;;;;;;;;;5057435;28;20932;-64
2023/10/02 10:57:19;;;;;;;32.92;17.08;;;;;;;;;;5054736;28;20032;-64
2023/10/02 10:59:45;;;;;;;24.50;16.73;;;;;;;;;;5074423;28;20761;-64
2023/10/02 11:02:18;;;;;;;30.63;18.13;;;;;;;;;;5072372;28;20376;-65
2023/10/02 11:04:51;;;;;;;33.30;17.98;;;;;;;;;;5073544;28;21282;-65
2023/10/02 11:07:22;;;;;;;36.25;18.08;;;;;;;;;;5074076;28;20090;-64
2023/10/02 11:13:08;;;;;;;30.17;17.80;;;;;;;;;;5074703;28;20069;-64
2023/10/02 11:15:54;;;;;;;32.78;18.52;;;;;;;;;;5072754;28;20058;-64
2023/10/02 11:18:23;;;;;;;28.98;16.63;;;;;;;;;;5073349;28;20067;-64
2023/10/02 11:20:57;;;;;;;35.60;18.35;;;;;;;;;;5072406;28;20035;-64
2023/10/02 11:23:44;;;;;;;29.80;17.02;;;;;;;;;;5073736;28;20031;-64
2023/10/02 11:26:13;;;;;;;32.15;17.90;;;;;;;;;;5076517;28;20023;-64
2023/10/02 11:28:41;;;;;;;30.88;18.50;;;;;;;;;;5077679;28;20102;-65
2023/10/02 11:34:05;;;;;;;29.30;16.95;;;;;;;;;;5077404;28;20209;-64
2023/10/02 11:36:37;;;;;;;34.45;19.48;;;;;;;;;;5076956;28;20065;-65
2023/10/02 11:39:16;;;;;;;32.88;18.70;;;;;;;;;;5076232;28;20150;-65
2023/10/02 11:41:42;;;;;;;31.40;19.42;;;;;;;;;;5076677;28;20402;-64
2023/10/02 11:44:12;;;;;;;33.30;19.35;;;;;;;;;;5077065;28;20028;-65
2023/10/02 11:46:40;;;;;;;30.95;19.13;;;;;;;;;;5076897;28;20120;-64
2023/10/02 11:49:06;;;;;;;33.15;19.20;;;;;;;;;;5076907;28;20955;-64
2023/10/02 11:51:33;;;;;;;31.52;19.30;;;;;;;;;;5076204;28;20123;-65
2023/10/02 11:53:59;;;;;;;30.25;18.42;;;;;;;;;;5076264;28;20399;-64
2023/10/02 11:56:29;;;;;;;29.02;18.40;;;;;;;;;;5076619;28;20125;-64
2023/10/02 11:58:56;;;;;;;31.98;19.08;;;;;;;;;;5076184;28;20047;-64
2023/10/02 12:01:23;;;;;;;28.85;18.65;;;;;;;;;;5076244;28;20047;-65
2023/10/02 12:03:49;;;;;;;30.17;19.00;;;;;;;;;;5076341;28;20032;-64
2023/10/02 12:06:19;;;;;;;32.85;18.98;;;;;;;;;;5075434;28;20039;-64
2023/10/02 12:08:46;;;;;;;26.77;18.48;;;;;;;;;;5075586;28;20072;-65
2023/10/02 12:11:13;;;;;;;32.97;19.52;;;;;;;;;;5074555;28;20032;-65
2023/10/02 12:13:40;;;;;;;32.05;19.38;;;;;;;;;;5075426;28;20487;-64
2023/10/02 12:16:11;;;;;;;31.88;18.55;;;;;;;;;;5074850;28;20042;-65
2023/10/02 12:18:37;;;;;;;30.55;17.85;;;;;;;;;;5075540;28;20032;-64
2023/10/02 12:21:08;;;;;;;32.15;18.08;;;;;;;;;;5075047;28;20031;-64
2023/10/02 12:23:39;;;;;;;29.88;18.83;;;;;;;;;;5075846;28;20099;-65
2023/10/02 12:26:05;;;;;;;38.28;18.27;;;;;;;;;;5054927;28;20124;-64
2023/10/02 12:28:32;;;;;;;34.05;21.30;;;;;;;;;;5073485;28;20031;-64
2023/10/02 12:30:59;;;;;;;33.05;18.63;;;;;;;;;;5075326;28;20039;-65
2023/10/02 12:33:25;;;;;;;28.08;17.30;;;;;;;;;;5074922;28;20043;-65
2023/10/02 12:35:54;;;;;;;35.17;18.98;;;;;;;;;;5072484;28;20035;-64
2023/10/02 12:38:24;;;;;;;30.02;17.52;;;;;;;;;;5066257;28;20038;-64
2023/10/02 12:40:51;;;;;;;35.17;19.02;;;;;;;;;;5076282;28;20032;-64
2023/10/02 12:43:17;;;;;;;38.85;20.65;;;;;;;;;;5075165;28;20148;-65
2023/10/02 12:45:43;;;;;;;35.28;20.58;;;;;;;;;;5075459;28;20399;-65
2023/10/02 12:48:12;;;;;;;33.42;17.85;;;;;;;;;;5075773;28;20038;-65
2023/10/02 12:50:41;;;;;;;28.02;17.48;;;;;;;;;;5075210;28;20016;-64
2023/10/02 12:53:10;;;;;;;32.22;19.00;;;;;;;;;;5075759;28;20127;-64
2023/10/02 12:55:36;;;;;;;34.17;21.02;;;;;;;;;;5074985;28;20032;-64
2023/10/02 12:58:04;;;;;;;34.97;20.45;;;;;;;;;;5075302;28;20031;-64
2023/10/02 13:00:31;;;;;;;32.28;19.70;;;;;;;;;;5074132;28;20050;-64
2023/10/02 13:02:58;;;;;;;31.05;20.40;;;;;;;;;;5074258;28;20031;-64
2023/10/02 13:05:25;;;;;;;32.65;21.60;;;;;;;;;;5074781;28;20024;-65
2023/10/02 13:07:55;;;;;;;34.72;20.63;;;;;;;;;;5073711;28;20096;-64
2023/10/02 13:10:22;;;;;;;35.47;21.77;;;;;;;;;;5072821;28;20169;-64
2023/10/02 13:12:49;;;;;;;38.00;23.20;;;;;;;;;;5074858;28;20028;-65
2023/10/02 13:15:15;;;;;;;38.90;23.08;;;;;;;;;;5054630;28;20154;-64
2023/10/02 13:17:42;;;;;;;31.35;20.33;;;;;;;;;;5073940;28;20077;-64
2023/10/02 13:20:10;;;;;;;35.20;21.95;;;;;;;;;;5073989;28;20032;-64
2023/10/02 13:22:36;;;;;;;35.40;22.48;;;;;;;;;;5074503;28;20051;-64
2023/10/02 13:25:06;;;;;;;33.65;21.63;;;;;;;;;;5074547;28;20494;-64
2023/10/02 13:27:32;;;;;;;38.47;22.58;;;;;;;;;;5074264;28;20031;-64
2023/10/02 13:29:59;;;;;;;35.25;20.83;;;;;;;;;;5074881;28;20511;-64
2023/10/02 13:32:26;;;;;;;37.60;22.65;;;;;;;;;;5074150;28;20040;-65
2023/10/02 13:34:54;;;;;;;34.58;21.13;;;;;;;;;;5072526;28;20550;-65
2023/10/02 13:37:20;;;;;;;33.03;20.55;;;;;;;;;;5071414;28;20142;-64
2023/10/02 13:39:47;;;;;;;34.97;21.73;;;;;;;;;;5073898;28;20039;-64
2023/10/02 13:42:15;;;;;;;36.85;20.30;;;;;;;;;;5071289;28;20056;-64
2023/10/02 13:44:41;;;;;;;36.05;21.83;;;;;;;;;;5070958;28;20822;-64
2023/10/02 13:47:07;;;;;;;34.95;21.10;;;;;;;;;;5071639;28;20064;-64
2023/10/02 13:49:33;;;;;;;33.72;20.17;;;;;;;;;;5073037;28;20077;-64
2023/10/02 13:51:59;;;;;;;37.45;22.20;;;;;;;;;;5073312;28;20145;-65
2023/10/02 13:54:25;;;;;;;34.40;22.83;;;;;;;;;;5074569;28;20066;-65
2023/10/02 13:56:51;;;;;;;35.78;21.73;;;;;;;;;;5072634;28;20131;-64
2023/10/02 13:59:17;;;;;;;32.35;21.42;;;;;;;;;;5072570;28;20104;-65
2023/10/02 14:01:46;;;;;;;33.03;19.02;;;;;;;;;;5074067;28;20062;-64
2023/10/02 14:04:12;;;;;;;28.25;18.67;;;;;;;;;;5072961;28;20165;-65
2023/10/02 14:06:38;;;;;;;31.92;20.63;;;;;;;;;;5073130;28;20067;-64
2023/10/02 14:09:09;;;;;;;29.00;17.38;;;;;;;;;;5073095;28;20420;-64
2023/10/02 14:11:39;;;;;;;27.95;17.33;;;;;;;;;;5072183;28;20485;-64
2023/10/02 14:14:06;;;;;;;28.90;16.83;;;;;;;;;;5072893;28;20078;-64
2023/10/02 14:16:33;;;;;;;26.95;16.38;;;;;;;;;;5071018;28;20064;-65
2023/10/02 14:19:00;;;;;;;24.75;14.45;;;;;;;;;;5072052;28;20039;-64
2023/10/02 14:21:26;;;;;;;26.45;13.80;;;;;;;;;;5072801;28;20064;-65
2023/10/02 14:23:54;;;;;;;23.95;14.30;;;;;;;;;;5073097;28;20114;-64
2023/10/02 14:26:21;;;;;;;25.77;14.05;;;;;;;;;;5072694;28;20101;-64
2023/10/02 14:28:48;;;;;;;27.67;14.63;;;;;;;;;;5073101;28;20024;-64
2023/10/02 14:31:31;;;;;;;23.58;14.75;;;;;;;;;;5073206;28;20036;-65
2023/10/02 14:33:57;;;;;;;41.40;15.77;;;;;;;;;;5073874;28;20119;-65
2023/10/02 14:36:25;;;;;;;20.60;13.18;;;;;;;;;;5073357;28;20667;-64
2023/10/02 14:38:56;;;;;;;24.85;14.90;;;;;;;;;;5056021;28;20036;-64
2023/10/02 14:41:23;;;;;;;27.75;16.10;;;;;;;;;;5072661;28;20035;-64
2023/10/02 14:43:49;;;;;;;24.75;16.85;;;;;;;;;;5059816;28;20768;-65
2023/10/02 14:46:15;;;;;;;28.27;17.92;;;;;;;;;;5068746;28;20488;-64
2023/10/02 14:48:41;;;;;;;29.90;18.17;;;;;;;;;;5070281;28;20158;-64
2023/10/02 14:51:12;;;;;;;35.67;19.20;;;;;;;;;;5072133;28;20068;-64
2023/10/02 14:53:38;;;;;;;30.42;18.20;;;;;;;;;;5072124;28;20062;-64
2023/10/02 14:56:04;;;;;;;36.58;19.73;;;;;;;;;;5071941;28;20040;-65
2023/10/02 14:58:32;;;;;;;33.00;17.50;;;;;;;;;;5072369;28;20036;-65
2023/10/02 15:00:58;;;;;;;32.45;20.60;;;;;;;;;;5074609;28;20035;-64
2023/10/02 15:03:25;;;;;;;34.45;20.45;;;;;;;;;;5075038;28;20036;-64
2023/10/02 15:05:51;;;;;;;30.45;19.27;;;;;;;;;;5074518;28;20065;-64
2023/10/02 15:08:17;;;;;;;27.40;18.48;;;;;;;;;;5075784;28;20081;-64
2023/10/02 15:10:44;;;;;;;30.38;19.75;;;;;;;;;;5076398;28;21039;-64
2023/10/02 15:13:11;;;;;;;31.60;19.38;;;;;;;;;;5076693;28;20640;-64
2023/10/02 15:15:39;;;;;;;29.48;18.98;;;;;;;;;;5075032;28;20027;-64
2023/10/02 15:18:08;;;;;;;29.77;18.25;;;;;;;;;;5076711;28;20073;-64
2023/10/02 15:20:35;;;;;;;30.52;19.05;;;;;;;;;;5073504;28;20034;-65
2023/10/02 15:23:01;;;;;;;32.20;19.70;;;;;;;;;;5075849;28;20151;-64
2023/10/02 15:25:30;;;;;;;36.08;19.77;;;;;;;;;;5075470;28;20109;-64
2023/10/02 15:28:00;;;;;;;32.50;21.10;;;;;;;;;;5075691;28;20114;-64
2023/10/02 15:30:26;;;;;;;29.67;19.27;;;;;;;;;;5076794;28;20071;-65
2023/10/02 15:32:56;;;;;;;29.40;19.73;;;;;;;;;;5076415;28;20032;-65